Time;durP1;ratioP1;P1;durP2;ratioP2;P2;SDS_P1;SDS_P2;PMS_P1;PMS_P2;Temp;Humidity;BMP_temperature;BMP_pressure;BME280_temperature;BME280_humidity;BME280_pressure;Samples;Min_cycle;Max_cycle;Signal;HPM_P1;HPM_P2
2021/03/06 00:01:23;;;;;;;;;;;4.90;55.90;;;;;;5054548;28;20012;-72
2021/03/06 00:03:50;;;;;;;;;;;4.90;55.00;;;;;;5054177;28;19920;-72
2021/03/06 00:06:18;;;;;;;14.27;6.60;;;;;;;;;;5035804;28;19924;-71
2021/03/06 00:08:44;;;;;;;;;;;4.90;54.70;;;;;;5053868;28;20427;-71
2021/03/06 00:11:11;;;;;;;;;;;4.70;55.00;;;;;;5053581;28;19924;-72
2021/03/06 00:13:37;;;;;;;;;;;4.70;55.70;;;;;;5036332;28;19924;-72
2021/03/06 00:16:04;;;;;;;;;;;5.00;55.20;;;;;;5053916;28;19927;-71
2021/03/06 00:18:31;;;;;;;;;;;5.70;55.50;;;;;;5053836;28;19921;-72
2021/03/06 00:20:57;;;;;;;;;;;4.90;55.50;;;;;;5036307;28;19927;-72
2021/03/06 00:23:35;;;;;;;;;;;4.80;55.60;;;;;;5040400;28;19925;-71
2021/03/06 00:26:01;;;;;;;;;;;6.10;55.90;;;;;;5053548;28;20386;-72
2021/03/06 00:28:28;;;;;;;;;;;4.70;55.80;;;;;;5053707;28;20375;-71
2021/03/06 00:31:09;;;;;;;;;;;4.80;55.90;;;;;;5053502;28;19924;-72
2021/03/06 00:33:36;;;;;;;;;;;4.30;56.00;;;;;;5053236;28;19944;-73
2021/03/06 00:36:03;;;;;;;;;;;4.60;56.30;;;;;;5053359;28;19932;-72
2021/03/06 00:38:29;;;;;;;;;;;4.60;56.60;;;;;;5053317;28;19935;-72
2021/03/06 00:40:56;;;;;;;;;;;4.50;56.60;;;;;;5053563;28;19921;-72
2021/03/06 00:43:22;;;;;;;;;;;4.50;56.00;;;;;;5053265;28;19920;-72
2021/03/06 00:45:49;;;;;;;;;;;4.40;55.90;;;;;;5053557;28;20107;-71
2021/03/06 00:48:15;;;;;;;;;;;4.80;56.60;;;;;;5035687;28;19921;-71
2021/03/06 00:50:42;;;;;;;;;;;5.30;56.40;;;;;;5055974;28;20440;-72
2021/03/06 00:53:12;;;;;;;;;;;4.80;56.30;;;;;;5038162;28;19974;-73
2021/03/06 00:55:40;;;;;;;;;;;4.70;56.80;;;;;;5036166;28;19921;-72
2021/03/06 00:58:07;;;;;;;;;;;5.30;56.60;;;;;;5052342;28;19924;-73
2021/03/06 01:00:35;;;;;;;;;;;4.70;56.90;;;;;;5035435;28;20379;-72
2021/03/06 01:03:05;;;;;;;;;;;4.60;56.90;;;;;;5052969;28;19924;-73
2021/03/06 01:05:31;;;;;;;;;;;4.70;56.10;;;;;;5053063;28;19932;-72
2021/03/06 01:07:58;;;;;;;;;;;4.80;56.30;;;;;;5052389;28;19971;-72
2021/03/06 01:10:29;;;;;;;;;;;3.50;55.60;;;;;;5035920;28;19932;-73
2021/03/06 01:12:56;;;;;;;;;;;5.30;56.40;;;;;;5053002;28;19924;-71
2021/03/06 01:15:23;;;;;;;;;;;4.90;56.20;;;;;;5018451;28;19921;-71
2021/03/06 01:17:49;;;;;;;;;;;5.70;56.30;;;;;;5034751;28;20358;-72
2021/03/06 01:20:16;;;;;;;;;;;4.90;56.40;;;;;;5053049;28;19952;-73
2021/03/06 01:22:43;;;;;;;;;;;4.20;55.70;;;;;;5053978;28;19921;-72
2021/03/06 01:25:09;;;;;;;;;;;4.50;56.50;;;;;;5056037;28;19921;-72
2021/03/06 01:27:36;;;;;;;;;;;4.50;57.10;;;;;;5058200;28;19931;-72
2021/03/06 01:30:04;;;;;;;;;;;4.60;56.60;;;;;;5062512;28;19921;-72
2021/03/06 01:32:30;;;;;;;;;;;4.50;57.00;;;;;;5042094;28;19920;-72
2021/03/06 01:34:57;;;;;;;;;;;4.80;57.10;;;;;;5052901;28;19967;-71
2021/03/06 01:37:24;;;;;;;;;;;4.80;57.30;;;;;;5055865;28;19920;-71
2021/03/06 01:39:50;;;;;;;;;;;4.70;57.10;;;;;;5039273;28;19924;-72
2021/03/06 01:42:18;;;;;;;;;;;4.40;57.50;;;;;;5038826;28;19924;-71
2021/03/06 01:44:44;;;;;;;;;;;4.40;57.30;;;;;;5052777;28;19921;-71
2021/03/06 01:47:11;;;;;;;;;;;4.50;57.20;;;;;;5037925;28;19920;-71
2021/03/06 01:49:37;;;;;;;;;;;5.50;57.10;;;;;;5058574;28;19932;-71
2021/03/06 01:52:05;;;;;;;;;;;4.50;57.10;;;;;;5038115;28;20283;-71
2021/03/06 01:54:32;;;;;;;;;;;4.80;57.20;;;;;;5053750;28;19921;-71
2021/03/06 01:56:58;;;;;;;;;;;4.80;57.50;;;;;;5052434;28;19928;-72
2021/03/06 01:59:25;;;;;;;;;;;4.30;57.50;;;;;;5059424;28;19978;-72
2021/03/06 02:01:52;;;;;;;;;;;4.60;57.70;;;;;;5061166;28;19921;-73
2021/03/06 02:04:19;;;;;;;;;;;4.10;58.30;;;;;;5060742;28;19921;-72
2021/03/06 02:06:45;;;;;;;;;;;3.50;57.50;;;;;;5034856;28;19924;-71
2021/03/06 02:09:12;;;;;;;;;;;4.00;58.40;;;;;;5051889;28;19920;-71
2021/03/06 02:11:50;;;;;;;;;;;4.00;58.50;;;;;;5034177;28;19920;-71
2021/03/06 02:14:26;;;;;;;;;;;4.10;58.50;;;;;;5051793;28;20287;-70
2021/03/06 02:16:55;;;;;;;;;;;4.20;58.30;;;;;;5051491;28;19920;-72
2021/03/06 02:19:25;;;;;;;;;;;4.10;58.10;;;;;;5052118;28;20448;-72
2021/03/06 02:21:55;;;;;;;;;;;4.10;58.60;;;;;;5059601;28;19925;-70
2021/03/06 02:24:42;;;;;;;;;;;4.60;57.80;;;;;;5057914;28;19967;-72
2021/03/06 02:27:17;;;;;;;;;;;4.20;58.00;;;;;;4977834;28;19926;-72
2021/03/06 02:29:45;;;;;;;;;;;4.30;58.20;;;;;;4990699;28;19965;-72
2021/03/06 02:32:11;;;;;;;;;;;5.30;57.50;;;;;;4990422;28;19947;-72
2021/03/06 02:34:40;;;;;;;;;;;4.30;57.50;;;;;;4989936;28;19972;-72
2021/03/06 02:37:07;;;;;;;;;;;4.60;57.50;;;;;;4990133;28;19928;-72
2021/03/06 02:39:35;;;;;;;;;;;4.50;57.80;;;;;;4990269;28;19922;-72
2021/03/06 02:42:04;;;;;;;;;;;4.40;58.10;;;;;;4989955;28;19922;-72
2021/03/06 02:44:32;;;;;;;;;;;4.70;58.00;;;;;;4989934;28;19951;-71
2021/03/06 02:46:59;;;;;;;;;;;4.20;58.10;;;;;;4990215;28;19957;-72
2021/03/06 02:49:25;;;;;;;;;;;4.30;57.80;;;;;;4989589;28;19932;-72
2021/03/06 02:51:52;;;;;;;;;;;5.50;57.40;;;;;;4990260;28;19922;-72
2021/03/06 02:54:19;;;;;;;;;;;4.60;57.30;;;;;;4989995;28;19957;-72
2021/03/06 02:56:46;;;;;;;;;;;2.60;56.10;;;;;;4989829;28;20371;-72
2021/03/06 02:59:32;;;;;;;;;;;4.50;57.00;;;;;;4989982;28;19921;-73
2021/03/06 03:01:58;;;;;;;;;;;4.40;57.40;;;;;;4988566;28;19965;-72
2021/03/06 03:04:44;;;;;;;;;;;4.40;57.40;;;;;;5016289;28;20422;-72
2021/03/06 03:07:20;;;;;;;;;;;5.20;57.60;;;;;;5051287;28;19921;-72
2021/03/06 03:09:47;;;;;;;;;;;4.30;58.00;;;;;;5045689;28;19921;-71
2021/03/06 03:12:14;;;;;;;;;;;5.00;57.40;;;;;;5051651;28;20433;-72
2021/03/06 03:14:43;;;;;;;;;;;3.40;56.30;;;;;;5051193;28;19945;-72
2021/03/06 03:17:11;;;;;;;;;;;4.30;56.90;;;;;;5032838;28;20382;-72
2021/03/06 03:19:43;;;;;;;;;;;4.20;57.10;;;;;;5033204;28;20290;-72
2021/03/06 03:22:10;;;;;;;;;;;4.10;58.20;;;;;;5052696;28;20005;-72
2021/03/06 03:24:38;;;;;;;;;;;4.10;57.70;;;;;;5037026;28;19921;-72
2021/03/06 03:27:07;;;;;;;;;;;4.10;57.20;;;;;;5054721;28;20276;-72
2021/03/06 03:29:35;;;;;;;;;;;4.20;57.70;;;;;;5054838;28;20378;-72
2021/03/06 03:32:03;;;;;;;;;;;4.60;57.30;;;;;;5054783;28;19948;-72
2021/03/06 03:34:31;;;;;;;;;;;4.50;56.50;;;;;;5035995;28;19924;-72
2021/03/06 03:36:58;;;;;;;;;;;4.90;55.40;;;;;;5054988;28;19920;-72
2021/03/06 03:39:25;;;;;;;;;;;5.10;55.00;;;;;;5054713;28;20436;-71
2021/03/06 03:41:52;;;;;;;;;;;5.80;55.40;;;;;;5054462;28;19927;-71
2021/03/06 03:44:19;;;;;;;;;;;4.80;54.90;;;;;;5054209;28;19974;-73
2021/03/06 03:46:46;;;;;;;;;;;6.00;55.30;;;;;;5036658;28;19924;-72
2021/03/06 03:49:14;;;;;;;;;;;5.00;55.30;;;;;;5035756;28;19956;-72
2021/03/06 03:51:41;;;;;;;;;;;5.70;54.60;;;;;;5037157;28;19994;-72
2021/03/06 03:54:08;;;;;;;;;;;4.70;53.70;;;;;;5054540;28;19956;-72
2021/03/06 03:56:35;;;;;;;;;;;5.00;53.90;;;;;;5055035;28;19921;-71
2021/03/06 03:59:01;;;;;;;;;;;5.20;53.40;;;;;;5036926;28;20379;-71
2021/03/06 04:01:37;;;;;;;;;;;5.40;53.20;;;;;;5054152;28;19978;-72
2021/03/06 04:04:04;;;;;;;;;;;5.00;52.90;;;;;;5053894;28;19920;-72
2021/03/06 04:06:31;;;;;;;;;;;5.20;52.80;;;;;;5053873;28;20306;-71
2021/03/06 04:08:58;;;;;;;;;;;4.60;52.30;;;;;;5036363;28;19920;-71
2021/03/06 04:11:24;;;;;;;;;;;5.30;53.10;;;;;;5036188;28;19921;-73
2021/03/06 04:13:51;;;;;;;;;;;5.20;53.70;;;;;;5053895;28;19947;-71
2021/03/06 04:16:17;;;;;;;;;;;5.70;53.60;;;;;;5053808;28;19925;-71
2021/03/06 04:18:44;;;;;;;;;;;4.10;52.50;;;;;;5053444;28;19987;-71
2021/03/06 04:21:10;;;;;;;;;;;5.10;53.30;;;;;;5035915;28;20390;-71
2021/03/06 04:23:37;;;;;;;;;;;5.10;52.90;;;;;;5053734;28;19921;-72
2021/03/06 04:26:03;;;;;;;;;;;5.50;51.90;;;;;;5053576;28;19944;-73
2021/03/06 04:28:30;;;;;;;;;;;5.20;52.30;;;;;;5036067;28;19928;-72
2021/03/06 04:30:56;;;;;;;;;;;5.80;52.60;;;;;;5053343;28;19924;-71
2021/03/06 04:33:23;;;;;;;;;;;5.60;51.70;;;;;;5053430;28;19971;-71
2021/03/06 04:35:49;;;;;;;;;;;5.20;51.50;;;;;;5037393;28;19928;-72
2021/03/06 04:38:16;;;;;;;;;;;5.20;52.00;;;;;;5055034;28;20452;-72
2021/03/06 04:40:42;;;;;;;;;;;5.40;52.20;;;;;;5035830;28;19959;-71
2021/03/06 04:43:09;;;;;;;;;;;5.20;52.20;;;;;;5053400;28;19986;-72
2021/03/06 04:45:36;;;;;;;;;;;5.10;52.30;;;;;;5052788;28;19924;-72
2021/03/06 04:48:04;;;;;;;;;;;5.20;52.90;;;;;;5035449;28;19925;-71
2021/03/06 04:50:30;;;;;;;;;;;5.10;52.70;;;;;;5053413;28;19932;-73
2021/03/06 04:53:11;;;;;;;;;;;5.10;52.50;;;;;;5053400;28;19920;-73
2021/03/06 04:55:38;;;;;;;;;;;5.10;53.30;;;;;;5053018;28;20011;-73
2021/03/06 04:58:04;;;;;;;;;;;5.40;53.10;;;;;;5053035;28;19986;-73
2021/03/06 05:00:31;;;;;;;;;;;5.10;53.40;;;;;;5052859;28;19967;-72
2021/03/06 05:02:58;;;;;;;;;;;5.00;53.30;;;;;;5052824;28;20387;-72
2021/03/06 05:05:25;;;;;;;;;;;5.00;53.10;;;;;;5053166;28;19975;-72
2021/03/06 05:07:51;;;;;;;;;;;5.00;52.60;;;;;;5052821;28;19990;-72
2021/03/06 05:10:21;;;;;;;;;;;4.60;52.50;;;;;;5052854;28;19920;-73
2021/03/06 05:12:47;;;;;;;;;;;5.00;53.00;;;;;;5052880;28;20383;-73
2021/03/06 05:15:15;;;;;;;;;;;4.90;53.40;;;;;;5051834;28;19928;-72
2021/03/06 05:17:41;;;;;;;;;;;4.80;53.60;;;;;;5052857;28;20323;-72
2021/03/06 05:20:08;;;;;;;;;;;4.70;53.50;;;;;;5052479;28;19970;-72
2021/03/06 05:22:35;;;;;;;;;;;4.70;54.80;;;;;;5052544;28;19971;-72
2021/03/06 05:25:02;;;;;;;;;;;4.80;55.80;;;;;;5034703;28;19928;-71
2021/03/06 05:27:30;;;;;;;;;;;4.90;56.60;;;;;;5052574;28;19990;-73
2021/03/06 05:29:57;;;;;;;;;;;4.10;56.70;;;;;;5051842;28;19952;-72
2021/03/06 05:32:24;;;;;;;;;;;3.40;56.30;;;;;;5034893;28;20382;-71
2021/03/06 05:34:50;;;;;;;;;;;4.00;57.00;;;;;;5052307;28;19931;-73
2021/03/06 05:37:17;;;;;;;;;;;4.00;57.20;;;;;;5034370;28;20752;-72
2021/03/06 05:39:43;;;;;;;;;;;4.30;57.40;;;;;;5034826;28;19920;-72
2021/03/06 05:42:10;;;;;;;;;;;5.30;57.80;;;;;;5034661;28;19952;-71
2021/03/06 05:44:37;;;;;;;;;;;4.00;56.20;;;;;;5019376;28;20374;-71
2021/03/06 05:47:04;;;;;;;;;;;4.60;56.80;;;;;;5056129;28;19951;-70
2021/03/06 05:49:32;;;;;;;;;;;4.20;55.70;;;;;;5056001;28;19943;-73
2021/03/06 05:51:59;;;;;;;;;;;4.30;55.70;;;;;;5052437;28;19931;-73
2021/03/06 05:54:26;;;;;;;;;;;4.20;54.60;;;;;;5052113;28;19994;-72
2021/03/06 05:56:53;;;;;;;;;;;4.50;55.00;;;;;;5052055;28;19921;-72
2021/03/06 05:59:21;;;;;;;;;;;4.40;54.90;;;;;;5051596;28;20006;-71
2021/03/06 06:01:48;;;;;;;;;;;4.50;55.40;;;;;;5052108;28;19956;-71
2021/03/06 06:04:15;;;;;;;;;;;4.20;56.00;;;;;;5052052;28;19921;-72
2021/03/06 06:06:42;;;;;;;;;;;4.00;57.10;;;;;;5054883;28;19944;-72
2021/03/06 06:09:08;;;;;;;;;;;3.80;57.60;;;;;;5057175;28;20394;-71
2021/03/06 06:11:35;;;;;;;;;;;4.00;57.60;;;;;;5058056;28;19991;-71
2021/03/06 06:14:02;;;;;;;;;;;4.20;57.50;;;;;;5056548;28;19967;-71
2021/03/06 06:16:33;;;;;;;;;;;4.50;57.70;;;;;;5052363;28;19921;-71
2021/03/06 06:19:01;;;;;;;;;;;3.90;57.70;;;;;;5055922;28;19928;-70
2021/03/06 06:21:43;;;;;;;;;;;3.50;57.80;;;;;;5056378;28;20012;-69
2021/03/06 06:24:10;;;;;;;;;;;3.70;58.80;;;;;;5054278;28;20397;-69
2021/03/06 06:26:38;;;;;;;;;;;3.30;58.30;;;;;;5051289;28;19947;-70
2021/03/06 06:29:04;;;;;;;;;;;2.80;57.70;;;;;;5055341;28;19968;-71
2021/03/06 06:31:32;;;;;;;;;;;3.60;58.80;;;;;;5056574;28;19931;-71
2021/03/06 06:33:58;;;;;;;;;;;3.70;58.80;;;;;;5038273;28;19952;-72
2021/03/06 06:36:38;;;;;;;;;;;3.80;58.60;;;;;;5052219;28;19935;-70
2021/03/06 06:39:06;;;;;;;;;;;3.90;58.80;;;;;;5034488;28;19932;-69
2021/03/06 06:41:48;;;;;;;;;;;4.00;57.60;;;;;;5038556;28;19921;-70
2021/03/06 06:44:15;;;;;;;;;;;4.10;58.00;;;;;;5054520;28;19947;-71
2021/03/06 06:46:42;;;;;;;;;;;4.50;57.20;;;;;;5036766;28;19963;-72
2021/03/06 06:49:08;;;;;;;;;;;4.70;56.50;;;;;;5033698;28;19974;-72
2021/03/06 06:51:35;;;;;;;;;;;5.40;55.90;;;;;;5051926;28;19978;-72
2021/03/06 06:54:13;;;;;;;;;;;5.00;55.10;;;;;;5051135;28;20264;-71
2021/03/06 06:56:40;;;;;;;;;;;5.10;54.20;;;;;;5051870;28;19921;-72
2021/03/06 06:59:08;;;;;;;;;;;5.10;55.00;;;;;;5037304;28;19978;-72
2021/03/06 07:01:36;;;;;;;;;;;6.10;56.40;;;;;;5037286;28;19921;-72
2021/03/06 07:04:07;;;;;;;;;;;4.50;56.40;;;;;;5054879;28;19920;-71
2021/03/06 07:06:35;;;;;;;;;;;4.50;57.30;;;;;;5054975;28;19974;-69
2021/03/06 07:09:05;;;;;;;;;;;4.10;57.20;;;;;;5054859;28;19963;-69
2021/03/06 07:11:32;;;;;;;;;;;5.80;58.20;;;;;;5054238;28;19924;-72
2021/03/06 07:13:59;;;;;;;;;;;4.60;57.70;;;;;;5054852;28;19970;-72
2021/03/06 07:16:45;;;;;;;;;;;3.90;56.30;;;;;;5054860;28;20015;-72
2021/03/06 07:19:12;;;;;;;;;;;3.60;56.00;;;;;;5036389;28;19928;-72
2021/03/06 07:21:48;;;;;;;;;;;4.90;57.10;;;;;;5054770;28;20458;-72
2021/03/06 07:24:15;;;;;;;;;;;5.00;57.20;;;;;;5054787;28;19928;-72
2021/03/06 07:26:42;;;;;;;;;;;4.90;57.10;;;;;;5053934;28;19983;-72
2021/03/06 07:29:08;;;;;;;;;;;6.60;56.60;;;;;;5054450;28;19920;-71
2021/03/06 07:31:37;;;;;;;;;;;5.60;56.00;;;;;;5054792;28;19947;-71
2021/03/06 07:34:05;;;;;;;;;;;6.20;55.80;;;;;;5054334;28;19942;-72
2021/03/06 07:36:34;;;;;;;;;;;6.20;55.30;;;;;;5036187;28;20328;-72
2021/03/06 07:39:01;;;;;;;;;;;5.70;55.40;;;;;;5053773;28;19956;-71
2021/03/06 07:41:29;;;;;;;;;;;6.20;54.50;;;;;;5054616;28;19928;-72
2021/03/06 07:43:57;;;;;;;;;;;6.10;54.90;;;;;;5036424;28;19956;-70
2021/03/06 07:46:23;;;;;;;;;;;6.30;53.40;;;;;;5054022;28;19967;-72
2021/03/06 07:48:53;;;;;;;;;;;6.40;54.00;;;;;;5053759;28;19928;-69
2021/03/06 07:51:21;;;;;;;;;;;8.10;54.50;;;;;;5054124;28;19974;-71
2021/03/06 07:53:48;;;;;;;;;;;6.50;53.20;;;;;;5002785;28;20386;-70
2021/03/06 07:56:15;;;;;;;;;;;6.90;53.00;;;;;;5053635;28;20035;-70
2021/03/06 07:58:49;;;;;;;;;;;6.80;52.80;;;;;;5035799;28;19928;-71
2021/03/06 08:01:25;;;;;;;;;;;7.00;52.70;;;;;;5035567;28;20098;-71
2021/03/06 08:03:51;;;;;;;;;;;7.20;52.50;;;;;;5053614;28;20333;-71
2021/03/06 08:06:22;;;;;;;;;;;7.20;52.30;;;;;;5035810;28;19927;-71
2021/03/06 08:08:53;;;;;;;;;;;7.50;52.40;;;;;;5035216;28;19963;-70
2021/03/06 08:11:34;;;;;;;;;;;7.10;52.50;;;;;;5053633;28;19921;-72
2021/03/06 08:14:03;;;;;;;;;;;7.30;51.80;;;;;;5053819;28;20014;-71
2021/03/06 08:16:31;;;;;;;;;;;7.40;52.30;;;;;;5032535;28;19948;-71
2021/03/06 08:19:07;;;;;;;;;;;7.40;52.00;;;;;;5033676;28;20343;-70
2021/03/06 08:21:39;;;;;;;;;;;7.60;52.80;;;;;;5035477;28;19967;-71
2021/03/06 08:24:12;;;;;;;;;;;6.50;54.10;;;;;;5018529;28;19948;-73
2021/03/06 08:26:59;;;;;;;;;;;6.40;54.60;;;;;;5034297;28;19924;-72
2021/03/06 08:29:40;;;;;;;;;;;6.50;55.50;;;;;;4974481;28;19984;-72
2021/03/06 08:32:13;;;;;;;;;;;6.60;55.20;;;;;;4975024;28;19926;-72
2021/03/06 08:34:46;;;;;;;;;;;7.00;55.00;;;;;;4971944;28;19949;-71
2021/03/06 08:37:30;;;;;;;;;;;7.40;54.00;;;;;;4971477;28;19929;-71
2021/03/06 08:40:00;;;;;;;;;;;7.60;53.10;;;;;;4971637;28;19929;-72
2021/03/06 08:42:26;;;;;;;;;;;7.20;52.40;;;;;;4955652;28;19929;-71
2021/03/06 08:44:54;;;;;;;;;;;7.40;53.50;;;;;;4971399;28;19972;-72
2021/03/06 08:47:22;;;;;;;;;;;6.80;54.90;;;;;;4970021;28;20109;-73
2021/03/06 08:49:51;;;;;;;;;;;6.50;55.00;;;;;;4971621;28;19992;-74
2021/03/06 08:52:18;;;;;;;;;;;6.90;54.30;;;;;;4971054;28;19969;-74
2021/03/06 08:54:44;;;;;;;;;;;7.30;54.10;;;;;;4971323;28;19950;-71
2021/03/06 08:57:30;;;;;;;;;;;6.70;54.30;;;;;;4971414;28;19922;-72
2021/03/06 09:00:05;;;;;;;;;;;6.90;55.10;;;;;;4970972;28;19946;-72
2021/03/06 09:02:33;;;;;;;;;;;7.30;53.20;;;;;;4969514;28;19948;-71
2021/03/06 09:05:08;;;;;;;;;;;7.40;52.60;;;;;;4966871;28;19960;-72
2021/03/06 09:07:36;;;;;;;;;;;8.00;52.40;;;;;;5026204;28;19975;-71
2021/03/06 09:10:13;;;;;;;;;;;7.80;51.10;;;;;;5035534;28;19920;-71
2021/03/06 09:12:41;;;;;;;;;;;8.20;49.30;;;;;;5035807;28;20000;-72
2021/03/06 09:15:09;;;;;;;;;;;8.40;50.00;;;;;;5033214;28;19925;-71
2021/03/06 09:17:35;;;;;;;;;;;8.40;48.80;;;;;;5045189;28;20279;-75
2021/03/06 09:20:08;;;;;;;;;;;8.70;48.70;;;;;;5030597;28;19952;-72
2021/03/06 09:22:41;;;;;;;;;;;8.80;47.20;;;;;;5010041;28;19929;-72
2021/03/06 09:25:08;;;;;;;;;;;8.70;48.30;;;;;;5017641;28;19921;-71
2021/03/06 09:27:42;;;;;;;;;;;7.90;48.50;;;;;;5030153;28;19931;-73
2021/03/06 09:30:27;;;;;;;;;;;8.00;50.00;;;;;;5031539;28;19932;-72
2021/03/06 09:32:54;;;;;;;;;;;7.60;48.60;;;;;;5031989;28;19928;-72
2021/03/06 09:35:21;;;;;;;;;;;7.80;50.10;;;;;;5030878;28;20016;-73
2021/03/06 09:38:05;;;;;;;;;;;8.00;49.10;;;;;;5031449;28;20302;-70
2021/03/06 09:40:36;;;;;;;;;;;8.30;48.00;;;;;;5030132;28;20049;-72
2021/03/06 09:43:23;;;;;;;;;;;8.30;47.10;;;;;;5014807;28;19921;-70
2021/03/06 09:45:49;;;;;;;;;;;8.80;47.00;;;;;;5029624;28;19952;-72
2021/03/06 09:48:16;;;;;;;;;;;8.00;47.20;;;;;;5023301;28;20016;-70
2021/03/06 09:50:44;;;;;;;;;;;7.90;48.60;;;;;;5029493;28;19925;-70
2021/03/06 09:53:18;;;;;;;;;;;8.10;49.40;;;;;;5031659;28;20364;-71
2021/03/06 09:55:45;;;;;;;;;;;8.40;47.60;;;;;;5031112;28;19921;-70
2021/03/06 09:58:19;;;;;;;;;;;8.30;46.00;;;;;;5031240;28;19921;-72
2021/03/06 10:00:48;;;;;;;;;;;8.70;46.40;;;;;;5031175;28;20010;-72
2021/03/06 10:03:28;;;;;;;;;;;8.40;46.70;;;;;;5030836;28;19932;-71
2021/03/06 10:05:56;;;;;;;;;;;8.50;46.50;;;;;;5030395;28;19924;-72
2021/03/06 10:08:23;;;;;;;;;;;8.80;45.90;;;;;;5031314;28;19956;-71
2021/03/06 10:10:50;;;;;;;;;;;9.10;44.60;;;;;;5030990;28;19921;-70
2021/03/06 10:13:18;;;;;;;;;;;8.70;45.00;;;;;;5031197;28;19932;-72
2021/03/06 10:15:50;;;;;;;;;;;8.00;44.80;;;;;;5030611;28;19964;-71
2021/03/06 10:18:18;;;;;;;;;;;8.80;45.50;;;;;;5011195;28;19921;-73
2021/03/06 10:20:46;;;;;;;;;;;8.50;44.80;;;;;;5005626;28;19925;-74
2021/03/06 10:23:12;;;;;;;;;;;8.50;45.20;;;;;;4993115;28;20024;-72
2021/03/06 10:25:39;;;;;;;;;;;8.60;44.90;;;;;;5022199;28;19921;-76
2021/03/06 10:28:10;;;;;;;;;;;8.60;44.60;;;;;;5010323;28;19929;-74
2021/03/06 10:30:38;;;;;;;;;;;8.20;44.40;;;;;;5003890;28;20307;-75
2021/03/06 10:33:05;;;;;;;;;;;7.90;43.70;;;;;;5015074;28;19921;-75
2021/03/06 10:35:32;;;;;;;;;;;8.20;45.30;;;;;;5015058;28;19928;-74
2021/03/06 10:37:58;;;;;;;;;;;8.80;43.00;;;;;;5007218;28;19929;-75
2021/03/06 10:40:45;;;;;;;;;;;8.90;42.20;;;;;;5013561;28;19972;-75
2021/03/06 10:43:30;;;;;;;;;;;9.00;42.10;;;;;;4987201;28;20302;-77
2021/03/06 10:46:15;;;;;;;;;;;8.70;41.40;;;;;;5015872;28;20388;-75
2021/03/06 10:48:43;;;;;;;;;;;8.90;42.00;;;;;;5021247;28;19928;-73
2021/03/06 10:51:10;;;;;;;;;;;9.60;41.40;;;;;;5017067;28;20383;-74
2021/03/06 10:53:37;;;;;;;;;;;8.90;41.00;;;;;;5014860;28;20289;-75
2021/03/06 10:56:17;;;;;;;;;;;9.30;40.60;;;;;;5006030;28;20335;-75
2021/03/06 10:58:45;;;;;;;;;;;9.40;40.40;;;;;;5015340;28;19944;-75
2021/03/06 11:01:32;;;;;;;;;;;9.60;40.80;;;;;;5012263;28;19922;-74
2021/03/06 11:04:00;;;;;;;;;;;10.30;39.60;;;;;;5012649;28;19925;-74
2021/03/06 11:06:26;;;;;;;;;;;10.50;38.10;;;;;;5011637;28;20020;-74
2021/03/06 11:09:00;;;;;;;;;;;11.20;37.50;;;;;;5027121;28;19928;-74
2021/03/06 11:11:39;;;;;;;;;;;12.30;36.80;;;;;;5029932;28;19925;-76
2021/03/06 11:14:05;;;;;;;;;;;12.00;35.80;;;;;;5030682;28;19941;-75
2021/03/06 11:16:39;;;;;;;;;;;11.70;35.40;;;;;;5032438;28;19921;-76
2021/03/06 11:19:06;;;;;;;;;;;11.30;34.60;;;;;;5035544;28;19925;-74
2021/03/06 11:21:33;;;;;;;;;;;11.30;36.40;;;;;;5041919;28;19921;-74
2021/03/06 11:24:00;;;;;;;;;;;11.10;35.40;;;;;;5045735;28;19921;-75
2021/03/06 11:26:26;;;;;;;;;;;11.20;35.30;;;;;;5043543;28;19979;-75
2021/03/06 11:28:53;;;;;;;;;;;11.50;35.80;;;;;;5038094;28;19929;-75
2021/03/06 11:31:20;;;;;;;;;;;11.60;35.50;;;;;;5034822;28;19979;-76
2021/03/06 11:33:46;;;;;;;;;;;12.00;35.20;;;;;;5039302;28;19948;-74
2021/03/06 11:36:13;;;;;;;;;;;11.80;35.60;;;;;;5044155;28;19928;-72
2021/03/06 11:38:39;;;;;;;;;;;11.90;34.50;;;;;;5043582;28;19925;-75
2021/03/06 11:41:06;;;;;;;;;;;12.00;34.40;;;;;;5046436;28;19975;-74
2021/03/06 11:43:33;;;;;;;;;;;11.80;34.90;;;;;;5035506;28;20406;-77
2021/03/06 11:45:59;;;;;;;;;;;12.00;34.10;;;;;;5020749;28;19980;-75
2021/03/06 11:48:26;;;;;;;;;;;12.20;33.90;;;;;;5035457;28;19932;-74
2021/03/06 11:50:52;;;;;;;;;;;12.00;34.20;;;;;;5038467;28;19921;-75
2021/03/06 11:53:19;;;;;;;;;;;12.30;33.80;;;;;;5034399;28;19928;-73
2021/03/06 11:55:46;;;;;;;;;;;12.70;34.40;;;;;;5034482;28;20268;-75
2021/03/06 11:58:13;;;;;;;;;;;12.40;35.60;;;;;;5038189;28;19921;-75
2021/03/06 12:00:39;;;;;;;;;;;12.00;35.50;;;;;;5034504;28;19988;-74
2021/03/06 12:03:06;;;;;;;;;;;12.10;34.50;;;;;;5035911;28;19979;-78
2021/03/06 12:05:33;;;;;;;;;;;12.20;35.60;;;;;;5038870;28;19928;-76
2021/03/06 12:08:00;;;;;;;;;;;11.20;33.90;;;;;;5037153;28;19920;-80
2021/03/06 12:10:30;;;;;;;;;;;11.40;34.40;;;;;;5028613;28;19998;-75
2021/03/06 12:12:57;;;;;;;;;;;11.30;35.50;;;;;;5033494;28;19921;-74
2021/03/06 12:15:24;;;;;;;;;;;11.10;35.60;;;;;;5034895;28;20442;-76
2021/03/06 12:17:52;;;;;;;;;;;11.10;35.20;;;;;;5030889;28;20021;-75
2021/03/06 12:20:19;;;;;;;;;;;10.80;35.50;;;;;;5037020;28;19928;-74
2021/03/06 12:22:48;;;;;;;;;;;10.40;37.20;;;;;;5035360;28;19975;-74
2021/03/06 12:25:15;;;;;;;;;;;10.30;37.20;;;;;;5032798;28;20371;-74
2021/03/06 12:27:42;;;;;;;;;;;10.20;37.50;;;;;;5032884;28;20345;-73
2021/03/06 12:30:10;;;;;;;;;;;9.80;37.90;;;;;;5032206;28;19925;-71
2021/03/06 12:32:36;;;;;;;;;;;10.20;38.20;;;;;;5033425;28;20458;-75
2021/03/06 12:35:05;;;;;;;;;;;10.60;37.30;;;;;;5033537;28;19943;-74
2021/03/06 12:37:32;;;;;;;;;;;10.70;36.80;;;;;;5041610;28;19984;-76
2021/03/06 12:39:58;;;;;;;;;;;10.40;36.40;;;;;;5042035;28;19987;-74
2021/03/06 12:42:25;;;;;;;;;;;10.10;37.30;;;;;;5036741;28;19925;-75
2021/03/06 12:44:52;;;;;;;;;;;10.60;37.50;;;;;;5032156;28;19960;-77
2021/03/06 12:47:18;;;;;;;;;;;10.30;37.40;;;;;;5011556;28;19922;-77
2021/03/06 12:49:45;;;;;;;;;;;10.40;37.10;;;;;;5022175;28;19925;-74
2021/03/06 12:52:13;;;;;;;;;;;10.60;37.60;;;;;;5032819;28;19925;-74
2021/03/06 12:54:39;;;;;;;;;;;11.20;36.50;;;;;;5031542;28;20430;-74
2021/03/06 12:57:06;;;;;;;;;;;11.30;36.00;;;;;;5032278;28;19921;-74
2021/03/06 12:59:32;;;;;;;;;;;12.00;35.00;;;;;;5031905;28;19921;-73
2021/03/06 13:01:59;;;;;;;;;;;12.00;35.00;;;;;;5031337;28;19964;-75
2021/03/06 13:04:25;;;;;;;;;;;12.40;34.70;;;;;;5032490;28;20300;-74
2021/03/06 13:06:53;;;;;;;;;;;11.60;34.30;;;;;;5031348;28;19984;-75
2021/03/06 13:09:20;;;;;;;;;;;11.80;35.30;;;;;;5032510;28;19931;-74
2021/03/06 13:11:47;;;;;;;;;;;12.00;34.90;;;;;;5032529;28;19964;-73
2021/03/06 13:14:14;;;;;;;;;;;11.50;35.20;;;;;;5032237;28;20008;-74
2021/03/06 13:16:41;;;;;;;;;;;11.40;35.00;;;;;;5039227;28;20385;-74
2021/03/06 13:19:08;;;;;;;;;;;11.20;34.40;;;;;;5051978;28;19920;-74
2021/03/06 13:21:34;;;;;;;;;;;11.50;34.20;;;;;;5051794;28;19996;-74
2021/03/06 13:24:01;;;;;;;;;;;11.70;33.70;;;;;;5048496;28;19928;-73
2021/03/06 13:26:28;;;;;;;;;;;12.10;33.70;;;;;;5051872;28;19966;-73
2021/03/06 13:28:54;;;;;;;;;;;12.40;34.00;;;;;;5048828;28;19936;-74
2021/03/06 13:31:21;;;;;;;;;;;11.20;33.50;;;;;;5051380;28;19979;-73
2021/03/06 13:33:48;;;;;;;;;;;11.50;34.20;;;;;;5051712;28;19921;-70
2021/03/06 13:36:14;;;;;;;;;;;11.70;34.20;;;;;;5033804;28;19921;-71
2021/03/06 13:38:44;;;;;;;;;;;12.20;33.70;;;;;;5051716;28;20275;-72
2021/03/06 13:41:10;;;;;;;;;;;12.50;33.80;;;;;;5046619;28;19921;-74
2021/03/06 13:43:37;;;;;;;;;;;12.50;32.90;;;;;;5047073;28;19952;-71
2021/03/06 13:46:03;;;;;;;;;;;9.60;31.40;;;;;;5050147;28;19940;-72
2021/03/06 13:48:30;;;;;;;;;;;12.60;33.10;;;;;;5051339;28;20327;-73
2021/03/06 13:51:05;;;;;;;;;;;12.20;32.70;;;;;;5048892;28;19928;-73
2021/03/06 13:53:31;;;;;;;;;;;14.40;34.50;;;;;;5051640;28;19943;-74
2021/03/06 13:55:58;;;;;;;;;;;12.90;32.80;;;;;;5049814;28;19928;-75
2021/03/06 13:58:26;;;;;;;;;;;12.70;31.90;;;;;;5051341;28;19924;-74
2021/03/06 14:00:53;;;;;;;;;;;12.00;32.60;;;;;;5051308;28;20024;-76
2021/03/06 14:03:35;;;;;;;;;;;12.10;33.20;;;;;;5050584;28;19924;-76
2021/03/06 14:06:02;;;;;;;;;;;12.20;31.70;;;;;;5050806;28;19920;-76
2021/03/06 14:08:29;;;;;;;;;;;12.10;33.00;;;;;;5033321;28;19959;-73
2021/03/06 14:10:55;;;;;;;;;;;12.50;32.50;;;;;;5050723;28;19991;-74
2021/03/06 14:13:23;;;;;;;;;;;11.90;33.10;;;;;;5048812;28;19921;-74
2021/03/06 14:15:51;;;;;;;;;;;12.40;32.80;;;;;;5024043;28;20007;-72
2021/03/06 14:18:17;;;;;;;;;;;12.20;33.20;;;;;;5040661;28;20406;-71
2021/03/06 14:20:44;;;;;;;;;;;12.70;32.60;;;;;;5047548;28;19929;-73
2021/03/06 14:23:11;;;;;;;;;;;12.80;31.90;;;;;;5040010;28;19960;-73
2021/03/06 14:25:37;;;;;;;;;;;12.40;32.00;;;;;;5025530;28;19929;-74
2021/03/06 14:28:04;;;;;;;;;;;12.20;32.60;;;;;;5038607;28;20107;-76
2021/03/06 14:30:30;;;;;;;;;;;12.70;31.60;;;;;;5043336;28;19975;-74
2021/03/06 14:32:57;;;;;;;;;;;12.80;32.00;;;;;;5037599;28;19995;-75
2021/03/06 14:38:35;;;;;;;8.93;3.78;;;;;;;;;;5065131;28;20431;-76